createdAt,value
2018-06-14T00:02:24.956Z,2.70
2018-06-14T00:07:17.915Z,2.70
2018-06-14T00:12:10.762Z,3.13
2018-06-14T00:17:03.642Z,3.00
2018-06-14T00:21:56.540Z,3.00
2018-06-14T00:26:49.475Z,2.80
2018-06-14T00:31:42.543Z,2.73
2018-06-14T00:36:35.431Z,3.27
2018-06-14T00:41:28.330Z,3.33
2018-06-14T00:46:21.244Z,3.03
2018-06-14T00:51:14.094Z,3.53
2018-06-14T00:56:07.230Z,3.30
2018-06-14T01:01:00.144Z,2.97
2018-06-14T01:05:53.065Z,3.03
2018-06-14T01:10:46.031Z,2.87
2018-06-14T01:15:38.920Z,2.70
2018-06-14T01:20:31.958Z,2.87
2018-06-14T01:25:24.836Z,2.93
2018-06-14T01:30:17.713Z,2.80
2018-06-14T01:35:10.689Z,2.77
2018-06-14T01:40:03.665Z,2.80
2018-06-14T01:44:56.567Z,2.93
2018-06-14T01:49:49.461Z,2.80
2018-06-14T01:54:42.360Z,3.00
2018-06-14T01:59:35.307Z,3.17
2018-06-14T02:04:28.203Z,3.23
2018-06-14T02:09:21.103Z,2.97
2018-06-14T02:14:13.938Z,3.33
2018-06-14T02:19:06.812Z,3.00
2018-06-14T02:23:59.698Z,3.00
2018-06-14T02:28:52.637Z,2.97
2018-06-14T02:33:45.541Z,2.50
2018-06-14T02:38:38.412Z,2.43
2018-06-14T02:43:31.340Z,2.50
2018-06-14T02:48:24.188Z,2.17
2018-06-14T02:53:18.865Z,2.50
2018-06-14T02:58:11.766Z,3.20
2018-06-14T03:03:04.662Z,3.13
2018-06-14T03:07:57.529Z,2.73
2018-06-14T03:12:50.413Z,3.63
2018-06-14T03:17:43.299Z,3.20
2018-06-14T03:22:36.182Z,3.50
2018-06-14T03:27:29.113Z,3.60
2018-06-14T03:32:22.091Z,2.87
2018-06-14T03:37:15.039Z,2.53
2018-06-14T03:42:11.944Z,2.93
2018-06-14T03:47:06.349Z,2.83
2018-06-14T03:51:59.288Z,3.10
2018-06-14T03:56:52.165Z,2.97
2018-06-14T04:01:45.048Z,3.00
2018-06-14T04:06:37.897Z,2.97
2018-06-14T04:11:30.717Z,3.20
2018-06-14T04:16:23.647Z,3.10
2018-06-14T04:21:16.557Z,3.17
2018-06-14T04:26:09.547Z,2.97
2018-06-14T04:31:02.454Z,3.40
2018-06-14T04:35:55.303Z,3.20
2018-06-14T04:40:48.184Z,3.73
2018-06-14T04:45:41.040Z,3.10
2018-06-14T04:50:34.153Z,3.57
2018-06-14T04:55:27.136Z,3.63
2018-06-14T05:00:19.994Z,3.40
2018-06-14T05:05:13.023Z,4.07
2018-06-14T05:10:06.021Z,3.87
2018-06-14T05:14:58.910Z,3.70
2018-06-14T05:19:51.821Z,4.00
2018-06-14T05:24:44.731Z,3.97
2018-06-14T05:29:37.739Z,4.20
2018-06-14T05:34:30.696Z,3.87
2018-06-14T05:39:23.521Z,3.97
2018-06-14T05:44:16.429Z,4.00
2018-06-14T05:49:09.498Z,4.47
2018-06-14T05:54:02.426Z,4.70
2018-06-14T05:58:55.642Z,4.30
2018-06-14T06:03:48.723Z,4.50
2018-06-14T06:08:41.644Z,4.60
2018-06-14T06:13:34.606Z,4.27
2018-06-14T06:18:27.613Z,4.00
2018-06-14T06:23:20.492Z,4.10
2018-06-14T06:28:13.410Z,4.03
2018-06-14T06:33:06.357Z,3.77
2018-06-14T06:37:59.256Z,3.10
2018-06-14T06:42:52.160Z,3.70
2018-06-14T06:47:45.013Z,4.20
2018-06-14T06:52:38.042Z,3.97
2018-06-14T06:57:30.930Z,4.00
2018-06-14T07:02:23.828Z,4.10
2018-06-14T07:07:16.722Z,3.90
2018-06-14T07:12:09.687Z,4.03
2018-06-14T07:17:02.787Z,4.33
2018-06-14T07:21:55.768Z,3.50
2018-06-14T07:26:48.675Z,3.70
2018-06-14T07:31:41.737Z,3.90
2018-06-14T07:36:34.533Z,4.03
2018-06-14T07:41:27.432Z,3.60
2018-06-14T07:46:20.423Z,3.73
2018-06-14T07:51:13.338Z,3.43
2018-06-14T07:56:06.290Z,3.03
2018-06-14T08:00:59.166Z,3.03
2018-06-14T08:05:52.082Z,3.30
2018-06-14T08:10:45.093Z,3.40
2018-06-14T08:15:38.021Z,3.13
2018-06-14T08:20:30.909Z,2.77
2018-06-14T08:25:23.854Z,2.80
2018-06-14T08:30:16.741Z,2.83
2018-06-14T08:35:09.625Z,2.70
2018-06-14T08:40:02.589Z,3.10
2018-06-14T08:44:56.595Z,2.60
2018-06-14T08:49:49.442Z,2.70
2018-06-14T08:54:42.346Z,3.10
2018-06-14T08:59:35.247Z,2.90
2018-06-14T09:04:28.106Z,2.50
2018-06-14T09:09:21.054Z,2.57
2018-06-14T09:14:14.000Z,2.43
2018-06-14T09:19:06.956Z,2.40
2018-06-14T09:23:59.888Z,2.10
2018-06-14T09:28:53.008Z,2.40
2018-06-14T09:33:45.816Z,2.20
2018-06-14T09:38:38.738Z,2.33
2018-06-14T09:43:31.641Z,2.43
2018-06-14T09:48:24.632Z,2.43
2018-06-14T09:53:17.605Z,2.50
2018-06-14T09:58:10.562Z,2.80
2018-06-14T10:03:03.450Z,2.33
2018-06-14T10:07:56.376Z,2.10
2018-06-14T10:12:49.232Z,2.23
2018-06-14T10:17:42.133Z,2.47
2018-06-14T10:22:35.135Z,2.40
2018-06-14T10:27:28.014Z,2.50
2018-06-14T10:32:20.403Z,2.70
2018-06-14T10:37:13.313Z,2.40
2018-06-14T10:42:06.253Z,2.40
2018-06-14T10:46:59.145Z,2.30
2018-06-14T10:51:52.113Z,2.00
2018-06-14T10:56:45.016Z,2.20
2018-06-14T11:01:38.000Z,2.10
2018-06-14T11:06:31.010Z,2.40
2018-06-14T11:11:23.905Z,2.20
2018-06-14T11:16:16.798Z,2.40
2018-06-14T11:21:09.698Z,2.10
2018-06-14T11:26:02.563Z,2.60
2018-06-14T11:30:55.438Z,2.30
2018-06-14T11:35:48.232Z,2.37
2018-06-14T11:40:41.105Z,2.10
2018-06-14T11:45:34.060Z,2.50
2018-06-14T11:50:26.975Z,2.20
2018-06-14T11:55:19.973Z,2.40
2018-06-14T12:00:12.865Z,2.40
2018-06-14T12:05:05.912Z,2.00
2018-06-14T12:09:58.785Z,2.77
2018-06-14T12:14:51.744Z,2.23
2018-06-14T12:19:44.709Z,2.40
2018-06-14T12:24:37.614Z,2.80
2018-06-14T12:29:30.489Z,2.30
2018-06-14T12:34:23.431Z,2.70
2018-06-14T12:39:16.387Z,2.17
2018-06-14T12:44:09.426Z,2.43
2018-06-14T12:49:02.709Z,2.30
2018-06-14T12:53:55.807Z,2.40
2018-06-14T12:58:49.721Z,2.40
2018-06-14T13:03:42.685Z,2.60
2018-06-14T13:08:35.671Z,2.70
2018-06-14T13:13:28.867Z,3.03
2018-06-14T13:18:21.906Z,2.70
2018-06-14T13:23:14.821Z,3.13
2018-06-14T13:28:07.870Z,2.80
2018-06-14T13:33:00.714Z,2.40
2018-06-14T13:37:53.693Z,2.87
2018-06-14T13:42:46.665Z,2.67
2018-06-14T13:47:39.666Z,2.87
2018-06-14T13:52:33.100Z,2.30
2018-06-14T13:57:26.036Z,2.30
2018-06-14T14:02:18.930Z,2.40
2018-06-14T14:07:11.899Z,2.40
2018-06-14T14:12:04.863Z,2.33
2018-06-14T14:16:57.989Z,2.70
2018-06-14T14:21:50.994Z,2.10
2018-06-14T14:26:43.877Z,2.23
2018-06-14T14:31:36.703Z,2.60
2018-06-14T14:36:29.613Z,2.43
2018-06-14T14:41:22.529Z,2.80
2018-06-14T14:46:15.460Z,2.50
2018-06-14T14:51:08.437Z,2.70
2018-06-14T14:56:01.283Z,2.60
2018-06-14T15:00:54.168Z,2.80
2018-06-14T15:05:47.108Z,2.70
2018-06-14T15:10:40.008Z,2.53
2018-06-14T15:15:32.854Z,2.37
2018-06-14T15:20:25.890Z,2.70
2018-06-14T15:25:18.786Z,2.27
2018-06-14T15:30:11.720Z,2.80
2018-06-14T15:35:04.586Z,2.80
2018-06-14T15:39:57.356Z,2.50
2018-06-14T15:44:55.992Z,2.57
2018-06-14T15:49:49.001Z,3.07
2018-06-14T15:54:41.919Z,3.10
2018-06-14T15:59:34.807Z,2.50
2018-06-14T16:04:27.686Z,2.70
2018-06-14T16:09:20.577Z,2.33
2018-06-14T16:14:13.352Z,2.60
2018-06-14T16:19:06.154Z,2.70
2018-06-14T16:23:59.084Z,2.67
2018-06-14T16:28:52.050Z,2.73
2018-06-14T16:33:44.982Z,2.70
2018-06-14T16:38:37.917Z,2.80
2018-06-14T16:43:31.030Z,3.33
2018-06-14T16:48:23.999Z,3.70
2018-06-14T16:53:16.893Z,2.60
2018-06-14T16:58:09.762Z,2.60
2018-06-14T17:03:02.754Z,2.60
2018-06-14T17:07:55.568Z,3.50
2018-06-14T17:12:48.363Z,3.23
2018-06-14T17:17:41.315Z,2.93
2018-06-14T17:22:34.193Z,2.80
2018-06-14T17:27:27.070Z,2.50
2018-06-14T17:32:19.901Z,2.60
2018-06-14T17:37:12.812Z,2.80
2018-06-14T17:42:05.678Z,2.63
2018-06-14T17:46:58.671Z,2.80
2018-06-14T17:51:51.911Z,2.97
2018-06-14T17:56:44.865Z,2.57
2018-06-14T18:01:38.058Z,2.90
2018-06-14T18:06:31.080Z,2.70
2018-06-14T18:11:24.191Z,2.47
2018-06-14T18:16:17.669Z,2.77
2018-06-14T18:21:10.543Z,3.00
2018-06-14T18:26:03.504Z,3.27
2018-06-14T18:30:56.421Z,2.90
2018-06-14T18:35:49.288Z,2.83
2018-06-14T18:40:42.228Z,3.30
2018-06-14T18:45:35.200Z,3.40
2018-06-14T18:50:28.094Z,3.77
2018-06-14T18:55:21.060Z,3.50
2018-06-14T19:00:14.124Z,2.90
2018-06-14T19:05:07.033Z,3.57
2018-06-14T19:09:59.975Z,3.00
2018-06-14T19:14:52.942Z,3.07
2018-06-14T19:19:45.962Z,4.27
2018-06-14T19:24:38.963Z,3.93
2018-06-14T19:29:31.757Z,3.77
2018-06-14T19:34:24.732Z,3.60
2018-06-14T19:39:17.699Z,4.00
2018-06-14T19:44:10.751Z,4.00
2018-06-14T19:49:03.691Z,4.77
2018-06-14T19:53:56.627Z,3.77
2018-06-14T19:58:49.533Z,4.03
2018-06-14T20:03:42.426Z,4.40
2018-06-14T20:08:36.255Z,4.17
2018-06-14T20:13:30.280Z,4.30
2018-06-14T20:18:23.288Z,3.90
2018-06-14T20:23:16.187Z,4.90
2018-06-14T20:28:09.091Z,5.17
2018-06-14T20:33:01.938Z,4.90
2018-06-14T20:37:54.825Z,4.43
2018-06-14T20:42:49.994Z,4.63
2018-06-14T20:47:42.966Z,4.97
2018-06-14T20:52:35.869Z,5.43
2018-06-14T20:57:28.796Z,5.40
2018-06-14T21:02:21.943Z,5.20
2018-06-14T21:07:14.849Z,5.50
2018-06-14T21:12:07.693Z,6.20
2018-06-14T21:17:00.733Z,5.67
2018-06-14T21:21:53.859Z,5.60
2018-06-14T21:26:46.738Z,5.07
2018-06-14T21:31:39.634Z,5.23
2018-06-14T21:36:32.523Z,5.00
2018-06-14T21:41:25.379Z,4.90
2018-06-14T21:55:41.191Z,6.60
2018-06-14T22:00:34.005Z,7.30
2018-06-14T22:05:27.106Z,7.03
2018-06-14T22:10:20.077Z,8.50
2018-06-14T22:15:12.956Z,7.73
2018-06-14T22:20:05.867Z,7.73
2018-06-14T22:24:58.714Z,7.30
2018-06-14T22:29:51.636Z,7.63
2018-06-14T22:34:56.022Z,8.10
2018-06-14T22:39:49.021Z,6.03
2018-06-14T22:44:41.876Z,6.50
2018-06-14T22:49:34.786Z,7.57
2018-06-14T22:54:27.714Z,6.60
2018-06-14T22:59:20.560Z,6.87
2018-06-14T23:04:14.995Z,6.57
2018-06-14T23:10:32.610Z,7.23
2018-06-14T23:15:25.518Z,7.10
2018-06-14T23:20:19.638Z,7.33
2018-06-14T23:25:12.606Z,8.03
2018-06-14T23:30:05.546Z,7.50
2018-06-14T23:34:58.474Z,6.70
2018-06-14T23:39:51.377Z,7.33
2018-06-14T23:44:44.249Z,7.93
2018-06-14T23:49:37.106Z,7.30
2018-06-14T23:54:30.983Z,7.73
2018-06-14T23:59:23.851Z,7.37
